Time;durP1;ratioP1;P1;durP2;ratioP2;P2;SDS_P1;SDS_P2;PMS_P1;PMS_P2;Temp;Humidity;BMP_temperature;BMP_pressure;BME280_temperature;BME280_humidity;BME280_pressure;Samples;Min_cycle;Max_cycle;Signal;HPM_P1;HPM_P2
2023/12/02 00:00:59;;;;;;;;;;;-0.30;99.90;;;;;;5051291;28;20341;-65
2023/12/02 00:03:25;;;;;;;19.45;11.93;;;-0.30;99.90;;;;;;5041571;28;19925;-65
2023/12/02 00:05:52;;;;;;;;;;;-0.20;99.90;;;;;;5067108;28;20056;-64
2023/12/02 00:08:19;;;;;;;18.95;12.95;;;-0.30;99.90;;;;;;5068643;28;19928;-64
2023/12/02 00:10:45;;;;;;;;;;;-0.40;99.90;;;;;;5053294;28;20040;-64
2023/12/02 00:13:11;;;;;;;19.25;11.90;;;-0.40;99.90;;;;;;5034689;28;20489;-62
2023/12/02 00:15:38;;;;;;;19.15;11.45;;;-0.40;99.90;;;;;;5033750;28;20045;-65
2023/12/02 00:18:04;;;;;;;18.17;12.07;;;-0.50;99.90;;;;;;5050950;28;20523;-62
2023/12/02 00:20:30;;;;;;;19.90;11.82;;;-0.50;99.90;;;;;;5034206;28;20076;-62
2023/12/02 00:22:57;;;;;;;;;;;-0.40;99.90;;;;;;5034245;28;20044;-63
2023/12/02 00:25:23;;;;;;;20.23;11.50;;;-0.40;99.90;;;;;;5050104;28;19921;-62
2023/12/02 00:27:49;;;;;;;;;;;-0.50;99.90;;;;;;5034722;28;20071;-62
2023/12/02 00:30:16;;;;;;;21.42;12.15;;;-0.60;99.90;;;;;;5033996;28;19939;-61
2023/12/02 00:32:42;;;;;;;22.35;13.15;;;-0.50;99.90;;;;;;5034486;28;20060;-62
2023/12/02 00:35:08;;;;;;;;;;;-0.50;99.90;;;;;;5050431;28;20156;-62
2023/12/02 00:37:35;;;;;;;18.38;12.38;;;-0.50;99.90;;;;;;5033916;28;20373;-62
2023/12/02 00:40:01;;;;;;;21.65;12.40;;;-0.60;99.90;;;;;;5033880;28;20049;-61
2023/12/02 00:42:27;;;;;;;20.67;13.02;;;-0.60;99.90;;;;;;5050295;28;20045;-62
2023/12/02 00:44:53;;;;;;;;;;;-0.50;99.90;;;;;;5033901;28;20059;-63
2023/12/02 00:47:20;;;;;;;22.42;13.75;;;-0.50;99.90;;;;;;5033472;28;19920;-63
2023/12/02 00:49:46;;;;;;;22.20;12.68;;;-0.50;99.90;;;;;;5030199;28;20065;-62
2023/12/02 00:52:12;;;;;;;21.30;12.57;;;-0.60;99.90;;;;;;5046949;28;20109;-62
2023/12/02 00:54:39;;;;;;;19.67;12.88;;;-0.60;99.90;;;;;;5030283;28;20049;-62
2023/12/02 00:57:05;;;;;;;;;;;-0.60;99.90;;;;;;5030444;28;20171;-63
2023/12/02 00:59:32;;;;;;;19.63;11.77;;;-0.60;99.90;;;;;;5030086;28;19921;-63
2023/12/02 01:01:58;;;;;;;20.45;13.32;;;-0.70;99.90;;;;;;5047018;28;20041;-63
2023/12/02 01:04:25;;;;;;;19.40;11.88;;;-0.60;99.90;;;;;;5029667;28;20067;-63
2023/12/02 01:06:51;;;;;;;22.20;14.23;;;-0.70;99.90;;;;;;5030206;28;20392;-63
2023/12/02 01:09:18;;;;;;;;;;;-0.60;99.90;;;;;;5030519;28;20041;-63
2023/12/02 01:11:44;;;;;;;20.70;12.23;;;-0.60;99.90;;;;;;5029944;28;19921;-63
2023/12/02 01:14:10;;;;;;;20.73;13.05;;;-0.50;99.90;;;;;;5029570;28;20375;-63
2023/12/02 01:16:37;;;;;;;23.08;14.05;;;-0.40;99.90;;;;;;5028935;28;20049;-63
2023/12/02 01:19:03;;;;;;;;;;;-0.50;99.90;;;;;;5030347;28;20426;-63
2023/12/02 01:21:29;;;;;;;22.10;13.15;;;-0.50;99.90;;;;;;5029829;28;19925;-64
2023/12/02 01:23:56;;;;;;;19.40;11.75;;;-0.50;99.90;;;;;;5029326;28;20054;-63
2023/12/02 01:26:23;;;;;;;22.48;13.98;;;-0.50;99.90;;;;;;5029672;28;20109;-64
2023/12/02 01:28:49;;;;;;;21.77;12.38;;;-0.50;99.90;;;;;;5029780;28;20465;-63
2023/12/02 01:31:15;;;;;;;;;;;-0.50;99.90;;;;;;5046867;28;20148;-63
2023/12/02 01:33:42;;;;;;;21.08;12.32;;;-0.50;99.90;;;;;;5046390;28;20371;-62
2023/12/02 01:36:12;;;;;;;23.30;13.43;;;-0.50;99.90;;;;;;5028662;28;20427;-63
2023/12/02 01:38:38;;;;;;;21.17;13.38;;;-0.60;99.90;;;;;;5046042;28;20517;-63
2023/12/02 01:41:04;;;;;;;;;;;-0.60;99.90;;;;;;5030186;28;20053;-63
2023/12/02 01:43:31;;;;;;;19.88;11.93;;;-0.70;99.90;;;;;;5029248;28;19921;-64
2023/12/02 01:45:57;;;;;;;;;;;-0.60;99.90;;;;;;5029290;28;20488;-64
2023/12/02 01:48:29;;;;;;;19.90;12.07;;;-0.70;99.90;;;;;;5045709;28;19921;-64
2023/12/02 01:50:56;;;;;;;19.88;12.02;;;-0.60;99.90;;;;;;5029243;28;20049;-63
2023/12/02 01:53:22;;;;;;;19.17;11.55;;;-0.60;99.90;;;;;;5029579;28;20496;-63
2023/12/02 01:55:48;;;;;;;20.02;11.88;;;-0.60;99.90;;;;;;5028311;28;20041;-63
2023/12/02 01:58:15;;;;;;;;;;;-0.60;99.90;;;;;;5029946;28;20456;-62
2023/12/02 02:00:41;;;;;;;21.60;11.90;;;-0.60;99.90;;;;;;5045587;28;19921;-62
2023/12/02 02:03:07;;;;;;;;;;;-0.60;99.90;;;;;;5029554;28;20046;-63
2023/12/02 02:05:34;;;;;;;21.05;12.23;;;-0.50;99.90;;;;;;5044814;28;19955;-63
2023/12/02 02:08:00;;;;;;;22.38;11.93;;;-0.50;99.90;;;;;;5029006;28;20057;-63
2023/12/02 02:10:26;;;;;;;;;;;-0.50;99.90;;;;;;5029662;28;20056;-63
2023/12/02 02:12:53;;;;;;;20.33;12.85;;;-0.40;99.90;;;;;;5029603;28;20249;-63
2023/12/02 02:15:19;;;;;;;;;;;-0.40;99.90;;;;;;5028755;28;20049;-63
2023/12/02 02:17:45;;;;;;;20.80;12.43;;;-0.40;99.90;;;;;;5012604;28;19921;-62
2023/12/02 02:20:12;;;;;;;;;;;-0.40;99.90;;;;;;5030364;28;20057;-63
2023/12/02 02:22:38;;;;;;;23.27;12.88;;;-0.40;99.90;;;;;;5045661;28;19927;-64
2023/12/02 02:25:05;;;;;;;21.75;12.15;;;-0.30;99.90;;;;;;5029101;28;20053;-64
2023/12/02 02:27:34;;;;;;;22.80;12.70;;;-0.30;99.90;;;;;;5047715;28;20268;-64
2023/12/02 02:30:00;;;;;;;20.52;13.23;;;-0.30;99.90;;;;;;5049374;28;20321;-63
2023/12/02 02:32:26;;;;;;;20.10;12.15;;;-0.30;99.90;;;;;;5033154;28;20049;-63
2023/12/02 02:34:53;;;;;;;;;;;-0.20;99.90;;;;;;5049791;28;20037;-62
2023/12/02 02:37:19;;;;;;;20.15;11.35;;;-0.30;99.90;;;;;;5032642;28;20333;-62
2023/12/02 02:39:45;;;;;;;;;;;-0.20;99.90;;;;;;5033243;28;20136;-63
2023/12/02 02:42:12;;;;;;;21.90;12.85;;;-0.30;99.90;;;;;;5032837;28;19921;-63
2023/12/02 02:44:38;;;;;;;;;;;-0.30;99.90;;;;;;5032626;28;20050;-64
2023/12/02 02:47:04;;;;;;;20.67;12.75;;;-0.30;99.90;;;;;;5032579;28;20363;-63
2023/12/02 02:49:31;;;;;;;20.45;12.32;;;-0.30;99.90;;;;;;5032311;28;20063;-63
2023/12/02 02:51:57;;;;;;;21.77;13.07;;;-0.40;99.90;;;;;;5049127;28;20060;-64
2023/12/02 02:54:24;;;;;;;20.52;12.00;;;-0.30;99.90;;;;;;5032350;28;20481;-62
2023/12/02 02:56:51;;;;;;;21.67;12.10;;;-0.20;99.90;;;;;;5032187;28;20053;-64
2023/12/02 02:59:17;;;;;;;22.17;12.05;;;-0.20;99.90;;;;;;5032777;28;20386;-64
2023/12/02 03:01:45;;;;;;;;;;;-0.20;99.90;;;;;;5033019;28;20049;-64
2023/12/02 03:04:11;;;;;;;20.17;11.32;;;-0.10;99.90;;;;;;5031976;28;19925;-63
2023/12/02 03:06:37;;;;;;;22.58;13.80;;;-0.30;99.90;;;;;;5048638;28;20050;-62
2023/12/02 03:09:05;;;;;;;;;;;-0.30;99.90;;;;;;5033081;28;20049;-63
2023/12/02 03:11:32;;;;;;;21.10;12.52;;;-0.30;99.90;;;;;;5048971;28;19920;-63
2023/12/02 03:13:58;;;;;;;20.95;12.43;;;-0.30;99.90;;;;;;5032048;28;20045;-62
2023/12/02 03:16:25;;;;;;;20.40;12.15;;;-0.30;99.90;;;;;;5048885;28;20053;-64
2023/12/02 03:18:51;;;;;;;20.45;11.40;;;-0.30;99.90;;;;;;5032419;28;20294;-64
2023/12/02 03:21:17;;;;;;;;;;;-0.30;99.90;;;;;;5049079;28;20063;-64
2023/12/02 03:23:45;;;;;;;21.00;12.05;;;-0.20;99.90;;;;;;5032018;28;19944;-64
2023/12/02 03:26:12;;;;;;;21.73;12.60;;;-0.20;99.90;;;;;;5035329;28;20357;-64
2023/12/02 03:28:39;;;;;;;20.00;12.18;;;-0.30;99.90;;;;;;5032412;28;20053;-65
2023/12/02 03:31:05;;;;;;;19.60;13.57;;;-0.20;99.90;;;;;;5048026;28;20400;-63
2023/12/02 03:33:31;;;;;;;21.05;13.15;;;-0.30;99.90;;;;;;5048501;28;20398;-63
2023/12/02 03:35:58;;;;;;;;;;;-0.30;99.90;;;;;;5046250;28;20125;-64
2023/12/02 03:38:24;;;;;;;19.45;14.13;;;-0.30;99.90;;;;;;5031026;28;20249;-64
2023/12/02 03:40:50;;;;;;;21.13;13.25;;;-0.30;99.90;;;;;;5031613;28;20132;-63
2023/12/02 03:43:17;;;;;;;20.10;12.35;;;-0.30;99.90;;;;;;5031583;28;20053;-62
2023/12/02 03:45:43;;;;;;;20.73;13.68;;;-0.30;99.90;;;;;;5047475;28;20497;-63
2023/12/02 03:48:09;;;;;;;20.65;12.50;;;-0.30;99.90;;;;;;5031599;28;20140;-63
2023/12/02 03:50:36;;;;;;;21.33;12.13;;;-0.30;99.90;;;;;;5048347;28;20080;-64
2023/12/02 03:53:02;;;;;;;19.85;13.43;;;-0.30;99.90;;;;;;5031158;28;20384;-63
2023/12/02 03:55:29;;;;;;;22.67;14.18;;;-0.40;99.90;;;;;;5047796;28;20339;-63
2023/12/02 03:57:55;;;;;;;20.17;12.82;;;-0.40;99.90;;;;;;5031739;28;20064;-62
2023/12/02 04:00:21;;;;;;;20.40;12.27;;;-0.40;99.90;;;;;;5031329;28;20045;-64
2023/12/02 04:02:47;;;;;;;21.60;12.57;;;-0.40;99.90;;;;;;5031358;28;20124;-63
2023/12/02 04:05:14;;;;;;;20.30;12.73;;;-0.40;99.90;;;;;;5030803;28;20052;-63
2023/12/02 04:07:41;;;;;;;22.30;12.80;;;-0.40;99.90;;;;;;5031092;28;20049;-63
2023/12/02 04:10:08;;;;;;;19.10;12.45;;;-0.40;99.90;;;;;;5047819;28;20071;-64
2023/12/02 04:12:34;;;;;;;19.23;12.05;;;-0.50;99.90;;;;;;5031437;28;20540;-63
2023/12/02 04:15:01;;;;;;;22.65;13.25;;;-0.50;99.90;;;;;;5030591;28;20061;-63
2023/12/02 04:17:27;;;;;;;20.23;12.07;;;-0.50;99.90;;;;;;5014491;28;20057;-63
2023/12/02 04:19:55;;;;;;;22.35;14.15;;;-0.50;99.90;;;;;;5031015;28;20053;-63
2023/12/02 04:22:21;;;;;;;24.30;14.75;;;-0.60;99.90;;;;;;5030966;28;20067;-63
2023/12/02 04:24:47;;;;;;;20.67;12.70;;;-0.60;99.90;;;;;;5030316;28;20049;-63
2023/12/02 04:27:14;;;;;;;21.10;12.57;;;-0.60;99.90;;;;;;5030747;28;20041;-63
2023/12/02 04:29:42;;;;;;;19.55;12.13;;;-0.50;99.90;;;;;;5030801;28;20496;-63
2023/12/02 04:32:08;;;;;;;21.52;13.63;;;-0.50;99.90;;;;;;5047249;28;20053;-62
2023/12/02 04:34:35;;;;;;;21.50;12.10;;;-0.60;99.90;;;;;;5030172;28;20049;-64
2023/12/02 04:37:01;;;;;;;22.80;12.95;;;-0.60;99.90;;;;;;5030056;28;20057;-63
2023/12/02 04:39:31;;;;;;;22.25;12.88;;;-0.60;99.90;;;;;;5047058;28;20049;-63
2023/12/02 04:41:57;;;;;;;20.52;13.32;;;-0.50;99.90;;;;;;5030570;28;20064;-64
2023/12/02 04:44:23;;;;;;;22.00;12.93;;;-0.50;99.90;;;;;;5046534;28;20042;-62
2023/12/02 04:46:50;;;;;;;20.40;12.18;;;-0.60;99.90;;;;;;5030375;28;20053;-63
2023/12/02 04:49:16;;;;;;;21.55;12.25;;;-0.60;99.90;;;;;;5046293;28;20057;-63
2023/12/02 04:51:42;;;;;;;22.13;13.73;;;-0.60;99.90;;;;;;5033411;28;20045;-64
2023/12/02 04:54:10;;;;;;;21.00;13.35;;;-0.60;99.90;;;;;;5033445;28;20421;-64
2023/12/02 04:56:36;;;;;;;23.98;13.48;;;-0.60;99.90;;;;;;5050345;28;20048;-62
2023/12/02 04:59:03;;;;;;;22.38;12.70;;;-0.60;99.90;;;;;;5051237;28;20052;-63
2023/12/02 05:01:29;;;;;;;22.50;13.40;;;-0.70;99.90;;;;;;5033414;28;20049;-63
2023/12/02 05:03:55;;;;;;;;;;;-0.70;99.90;;;;;;5033637;28;20053;-63
2023/12/02 05:06:22;;;;;;;21.95;13.50;;;-0.70;99.90;;;;;;5066160;28;19927;-63
2023/12/02 05:08:48;;;;;;;22.58;13.40;;;-0.70;99.90;;;;;;5033564;28;20053;-64
2023/12/02 05:11:18;;;;;;;;;;;-0.60;99.90;;;;;;5067051;28;20037;-64
2023/12/02 05:13:46;;;;;;;22.40;12.95;;;-0.60;99.90;;;;;;5033240;28;20444;-63
2023/12/02 05:16:13;;;;;;;23.60;12.30;;;-0.60;99.90;;;;;;5032664;28;20049;-64
2023/12/02 05:18:43;;;;;;;20.60;12.95;;;-0.60;99.90;;;;;;5033015;28;20053;-65
2023/12/02 05:21:09;;;;;;;25.10;13.45;;;-0.60;99.90;;;;;;5049391;28;20140;-63
2023/12/02 05:23:36;;;;;;;24.85;13.70;;;-0.60;99.90;;;;;;5032473;28;20155;-63
2023/12/02 05:26:02;;;;;;;22.15;14.05;;;-0.60;99.90;;;;;;5065746;28;20424;-64
2023/12/02 05:28:29;;;;;;;23.77;13.15;;;-0.60;99.90;;;;;;5032964;28;20136;-63
2023/12/02 05:30:55;;;;;;;23.20;13.77;;;-0.60;99.90;;;;;;5066157;28;20048;-63
2023/12/02 05:33:22;;;;;;;26.05;15.55;;;-0.60;99.90;;;;;;5032779;28;20049;-62
2023/12/02 05:35:49;;;;;;;23.95;14.55;;;-0.70;99.90;;;;;;5065072;28;20056;-63
2023/12/02 05:38:15;;;;;;;23.70;14.27;;;-0.70;99.90;;;;;;5032855;28;20068;-63
2023/12/02 05:40:42;;;;;;;23.77;13.85;;;-0.70;99.90;;;;;;5066060;28;20045;-63
2023/12/02 05:43:08;;;;;;;28.20;16.45;;;-0.70;99.90;;;;;;5032744;28;20369;-62
2023/12/02 05:45:34;;;;;;;25.27;14.65;;;-0.70;99.90;;;;;;5049579;28;20454;-63
2023/12/02 05:48:01;;;;;;;;;;;-0.70;99.90;;;;;;5032995;28;20443;-63
2023/12/02 05:50:27;;;;;;;22.50;13.27;;;-0.70;99.90;;;;;;5016297;28;20008;-63
2023/12/02 05:52:53;;;;;;;23.33;14.30;;;-0.70;99.90;;;;;;5065718;28;20045;-63
2023/12/02 05:55:20;;;;;;;24.90;12.98;;;-0.80;99.90;;;;;;5032479;28;20068;-64
2023/12/02 05:57:46;;;;;;;25.42;14.57;;;-0.80;99.90;;;;;;5065645;28;20056;-63
2023/12/02 06:00:16;;;;;;;;;;;-0.70;99.90;;;;;;5032367;28;20056;-62
2023/12/02 06:02:42;;;;;;;26.30;14.02;;;-0.80;99.90;;;;;;5048963;28;19924;-63
2023/12/02 06:05:09;;;;;;;25.67;13.68;;;-0.80;99.90;;;;;;5065110;28;20071;-63
2023/12/02 06:07:35;;;;;;;27.48;15.32;;;-0.80;99.90;;;;;;5032254;28;20055;-63
2023/12/02 06:10:02;;;;;;;;;;;-0.90;99.90;;;;;;5066316;28;20053;-64
2023/12/02 06:12:29;;;;;;;26.40;13.35;;;-0.90;99.90;;;;;;5032356;28;19924;-62
2023/12/02 06:14:55;;;;;;;25.13;14.48;;;-0.90;99.90;;;;;;5065152;28;20045;-63
2023/12/02 06:17:21;;;;;;;;;;;-0.80;99.90;;;;;;5065671;28;20049;-62
2023/12/02 06:19:47;;;;;;;22.60;14.20;;;-0.90;99.90;;;;;;5049885;28;20252;-63
2023/12/02 06:22:14;;;;;;;24.27;13.63;;;-0.80;99.90;;;;;;5065324;28;20071;-63
2023/12/02 06:24:40;;;;;;;26.02;15.77;;;-0.90;99.90;;;;;;5031862;28;20366;-64
2023/12/02 06:27:07;;;;;;;24.25;13.35;;;-0.80;99.90;;;;;;5065212;28;20487;-63
2023/12/02 06:29:33;;;;;;;;;;;-0.80;99.90;;;;;;5032747;28;20048;-64
2023/12/02 06:31:59;;;;;;;25.63;13.68;;;-0.80;99.90;;;;;;5049815;28;19924;-64
2023/12/02 06:34:27;;;;;;;26.10;13.82;;;-0.80;99.90;;;;;;5031850;28;20107;-64
2023/12/02 06:36:53;;;;;;;;;;;-0.80;99.90;;;;;;5065813;28;20057;-64
2023/12/02 06:39:19;;;;;;;27.00;13.32;;;-0.80;99.90;;;;;;5032142;28;19932;-65
2023/12/02 06:41:45;;;;;;;;;;;-0.80;99.90;;;;;;5032366;28;20087;-63
2023/12/02 06:44:12;;;;;;;23.27;13.55;;;-0.80;99.90;;;;;;5063737;28;19964;-63
2023/12/02 06:46:38;;;;;;;25.70;13.88;;;-0.80;99.90;;;;;;5031228;28;20473;-65
2023/12/02 06:49:05;;;;;;;25.30;14.73;;;-0.80;99.90;;;;;;5031844;28;20121;-64
2023/12/02 06:51:31;;;;;;;26.00;14.57;;;-0.80;99.90;;;;;;5047971;28;20033;-63
2023/12/02 06:53:57;;;;;;;;;;;-0.80;99.90;;;;;;5032044;28;20450;-64
2023/12/02 06:56:25;;;;;;;23.10;12.45;;;-0.80;99.90;;;;;;5066066;28;19920;-63
2023/12/02 06:58:53;;;;;;;24.20;13.10;;;-0.80;99.90;;;;;;5064691;28;20056;-63
2023/12/02 07:01:27;;;;;;;23.30;12.25;;;-0.80;99.90;;;;;;5031446;28;20485;-64
2023/12/02 07:04:00;;;;;;;22.30;12.65;;;-0.90;99.90;;;;;;5063768;28;20045;-64
2023/12/02 07:06:27;;;;;;;22.58;14.00;;;-0.90;99.90;;;;;;5031583;28;20049;-64
2023/12/02 07:08:54;;;;;;;22.15;12.07;;;-0.80;99.90;;;;;;5031611;28;20045;-64
2023/12/02 07:11:21;;;;;;;24.85;13.10;;;-0.90;99.90;;;;;;5049839;28;20052;-64
2023/12/02 07:13:48;;;;;;;24.95;13.43;;;-0.90;99.90;;;;;;5019027;28;20476;-63
2023/12/02 07:16:14;;;;;;;24.38;13.15;;;-0.90;99.90;;;;;;5035834;28;20067;-64
2023/12/02 07:18:41;;;;;;;23.60;13.40;;;-1.00;99.90;;;;;;5035381;28;20065;-63
2023/12/02 07:21:09;;;;;;;24.33;13.30;;;-0.90;99.90;;;;;;5035667;28;20064;-63
2023/12/02 07:23:36;;;;;;;22.63;13.45;;;-0.90;99.90;;;;;;5049636;28;20360;-63
2023/12/02 07:26:02;;;;;;;23.88;13.65;;;-0.90;99.90;;;;;;5033286;28;20229;-62
2023/12/02 07:28:28;;;;;;;25.17;13.80;;;-1.00;99.90;;;;;;5051063;28;20041;-63
2023/12/02 07:30:55;;;;;;;;;;;-1.00;99.90;;;;;;5034379;28;20053;-64
2023/12/02 07:33:22;;;;;;;21.88;12.15;;;-1.00;99.90;;;;;;5033557;28;19925;-64
2023/12/02 07:35:49;;;;;;;26.13;13.68;;;-1.00;99.90;;;;;;5033592;28;20048;-63
2023/12/02 07:38:15;;;;;;;;;;;-1.00;99.90;;;;;;5034937;28;20057;-63
2023/12/02 07:40:41;;;;;;;24.90;13.82;;;-1.10;99.90;;;;;;5033546;28;19924;-63
2023/12/02 07:43:08;;;;;;;;;;;-1.10;99.90;;;;;;5068343;28;20056;-64
2023/12/02 07:45:36;;;;;;;26.73;13.57;;;-1.20;99.90;;;;;;5034328;28;19943;-64
2023/12/02 07:48:02;;;;;;;22.60;12.65;;;-1.20;99.90;;;;;;5034245;28;20049;-63
2023/12/02 07:50:28;;;;;;;25.38;13.43;;;-1.10;99.90;;;;;;5067731;28;20067;-63
2023/12/02 07:52:55;;;;;;;23.60;14.13;;;-1.10;99.90;;;;;;5034959;28;20424;-62
2023/12/02 07:55:21;;;;;;;23.40;13.45;;;-1.10;99.90;;;;;;5067890;28;20472;-63
2023/12/02 07:57:47;;;;;;;25.80;13.20;;;-1.00;99.90;;;;;;5034205;28;20143;-63
2023/12/02 08:00:14;;;;;;;;;;;-1.00;99.90;;;;;;5035093;28;20053;-65
2023/12/02 08:02:40;;;;;;;24.35;13.38;;;-1.00;99.90;;;;;;5034630;28;20360;-63
2023/12/02 08:05:07;;;;;;;25.65;13.57;;;-0.90;99.90;;;;;;5049396;28;20045;-64
2023/12/02 08:07:33;;;;;;;24.35;13.98;;;-0.90;99.90;;;;;;5033917;28;20059;-64
2023/12/02 08:09:59;;;;;;;;;;;-1.00;99.90;;;;;;5035030;28;20053;-63
2023/12/02 08:12:26;;;;;;;24.50;13.27;;;-0.90;99.90;;;;;;5033087;28;19921;-63
2023/12/02 08:14:52;;;;;;;25.00;13.80;;;-0.90;99.90;;;;;;5026871;28;20053;-63
2023/12/02 08:17:18;;;;;;;;;;;-1.00;99.90;;;;;;5032985;28;20088;-63
2023/12/02 08:19:45;;;;;;;24.92;13.50;;;-0.90;99.90;;;;;;5034093;28;19944;-64
2023/12/02 08:22:12;;;;;;;26.77;14.20;;;-0.90;99.90;;;;;;5053530;28;20055;-63
2023/12/02 08:24:42;;;;;;;27.65;14.25;;;-0.90;99.90;;;;;;5052781;28;20053;-63
2023/12/02 08:27:09;;;;;;;24.48;13.73;;;-0.80;99.90;;;;;;5035952;28;20064;-63
2023/12/02 08:29:35;;;;;;;26.25;13.98;;;-0.80;99.90;;;;;;5035690;28;20072;-63
2023/12/02 08:32:03;;;;;;;28.75;16.23;;;-0.80;99.90;;;;;;5053646;28;20040;-63
2023/12/02 08:34:30;;;;;;;28.63;14.60;;;-0.80;99.90;;;;;;5052998;28;20041;-63
2023/12/02 08:36:56;;;;;;;28.17;16.58;;;-0.70;99.90;;;;;;5053202;28;20052;-63
2023/12/02 08:39:22;;;;;;;;;;;-0.70;99.90;;;;;;5036178;28;20156;-63
2023/12/02 08:41:48;;;;;;;24.88;13.38;;;-0.70;99.90;;;;;;5053622;28;19921;-63
2023/12/02 08:44:15;;;;;;;;;;;-0.80;99.90;;;;;;5053479;28;20045;-63
2023/12/02 08:46:41;;;;;;;29.52;15.52;;;-0.70;99.90;;;;;;5052065;28;19971;-63
2023/12/02 08:49:07;;;;;;;26.95;15.35;;;-0.60;99.90;;;;;;5052899;28;20465;-62
2023/12/02 08:51:34;;;;;;;29.58;15.88;;;-0.70;99.90;;;;;;5052153;28;20052;-63
2023/12/02 08:54:01;;;;;;;30.13;16.40;;;-0.60;99.90;;;;;;5035382;28;20066;-63
2023/12/02 08:56:28;;;;;;;34.47;16.05;;;-0.70;99.90;;;;;;5050939;28;20461;-63
2023/12/02 08:58:54;;;;;;;27.88;17.38;;;-0.60;99.90;;;;;;5035746;28;20466;-64
2023/12/02 09:01:21;;;;;;;28.35;14.85;;;-0.60;99.90;;;;;;5068760;28;20053;-63
2023/12/02 09:03:47;;;;;;;28.70;14.32;;;-0.60;99.90;;;;;;5035129;28;20052;-63
2023/12/02 09:06:14;;;;;;;30.45;16.10;;;-0.40;99.90;;;;;;5052716;28;20049;-63
2023/12/02 09:08:40;;;;;;;32.10;16.63;;;-0.40;99.90;;;;;;5035341;28;20096;-63
2023/12/02 09:11:07;;;;;;;30.10;17.42;;;-0.50;99.90;;;;;;5052841;28;20389;-64
2023/12/02 09:13:41;;;;;;;;;;;-0.50;99.90;;;;;;5035363;28;20048;-63
2023/12/02 09:16:17;;;;;;;30.10;15.05;;;-0.50;99.90;;;;;;5051109;28;19932;-62
2023/12/02 09:18:43;;;;;;;34.00;15.98;;;-0.40;99.90;;;;;;5035038;28;20067;-64
2023/12/02 09:21:40;;;;;;;33.28;17.08;;;-0.50;99.90;;;;;;5052482;28;20061;-62
2023/12/02 09:24:33;;;;;;;34.08;17.38;;;-0.50;99.90;;;;;;5034636;28;20060;-63
2023/12/02 09:26:59;;;;;;;32.20;16.42;;;-0.50;99.90;;;;;;5052121;28;20099;-63
2023/12/02 09:29:34;;;;;;;30.85;16.48;;;-0.50;99.90;;;;;;5052827;28;20407;-63
2023/12/02 09:32:33;;;;;;;34.17;16.15;;;-0.40;99.90;;;;;;5034701;28;20264;-63
2023/12/02 09:35:00;;;;;;;29.65;13.85;;;-0.40;99.90;;;;;;5052590;28;20053;-63
2023/12/02 09:37:56;;;;;;;30.17;15.20;;;-0.20;99.90;;;;;;5034265;28;20053;-63
2023/12/02 09:40:25;;;;;;;33.72;15.68;;;-0.20;99.90;;;;;;5034915;28;20048;-63
2023/12/02 09:43:10;;;;;;;30.95;15.98;;;-0.20;99.90;;;;;;5034702;28;20469;-63
2023/12/02 09:45:53;;;;;;;31.42;15.98;;;-0.10;99.90;;;;;;5034499;28;20053;-62
2023/12/02 09:48:23;;;;;;;30.80;14.65;;;-0.10;99.90;;;;;;5031077;28;20046;-62
2023/12/02 09:50:58;;;;;;;29.48;15.90;;;-0.10;99.90;;;;;;5032489;28;20053;-63
2023/12/02 09:53:59;;;;;;;28.98;15.85;;;0.00;99.90;;;;;;5014823;28;20413;-63
2023/12/02 09:56:30;;;;;;;29.80;16.58;;;0.00;99.90;;;;;;5038003;28;20472;-63
2023/12/02 09:59:42;;;;;;;31.95;17.15;;;0.10;99.90;;;;;;5034559;28;20057;-62
2023/12/02 10:02:34;;;;;;;30.27;16.40;;;0.10;99.90;;;;;;5050842;28;20457;-63
2023/12/02 10:05:00;;;;;;;31.33;15.70;;;0.10;99.90;;;;;;5034468;28;20057;-62
2023/12/02 10:07:30;;;;;;;;;;;0.20;99.90;;;;;;5034227;28;20056;-63
2023/12/02 10:10:09;;;;;;;31.98;15.52;;;0.20;99.90;;;;;;5034606;28;19955;-63
2023/12/02 10:12:59;;;;;;;31.13;15.43;;;0.30;99.90;;;;;;5050940;28;20278;-62
2023/12/02 10:15:29;;;;;;;31.80;16.35;;;0.30;99.90;;;;;;5034805;28;20060;-63
2023/12/02 10:18:15;;;;;;;31.40;16.63;;;0.30;99.90;;;;;;5050508;28;20068;-63
2023/12/02 10:20:44;;;;;;;31.52;16.10;;;0.40;99.90;;;;;;5034200;28;20071;-62
2023/12/02 10:23:25;;;;;;;29.48;16.13;;;0.40;99.90;;;;;;5033716;28;20393;-62
2023/12/02 10:26:06;;;;;;;34.13;15.95;;;0.40;99.90;;;;;;5033048;28;20055;-62
2023/12/02 10:28:58;;;;;;;32.33;17.85;;;0.40;99.90;;;;;;5014498;28;20053;-63
2023/12/02 10:31:27;;;;;;;32.03;16.20;;;0.40;99.90;;;;;;5030902;28;20067;-62
2023/12/02 10:34:18;;;;;;;33.80;17.20;;;0.40;99.90;;;;;;5021960;28;20056;-63
2023/12/02 10:36:50;;;;;;;33.88;18.13;;;0.40;99.90;;;;;;5048671;28;20377;-62
2023/12/02 10:39:24;;;;;;;34.42;17.10;;;0.40;99.90;;;;;;5066533;28;20053;-62
2023/12/02 10:42:00;;;;;;;33.95;15.38;;;0.50;99.90;;;;;;5033005;28;20041;-63
2023/12/02 10:44:31;;;;;;;34.63;16.38;;;0.50;99.90;;;;;;5032251;28;20049;-63
2023/12/02 10:47:04;;;;;;;36.50;18.27;;;0.50;99.90;;;;;;5035266;28;20385;-62
2023/12/02 10:49:32;;;;;;;63.15;30.98;;;0.40;99.90;;;;;;5028198;28;20052;-61
2023/12/02 10:52:02;;;;;;;32.67;16.33;;;0.50;99.90;;;;;;5061947;28;20040;-62
2023/12/02 10:54:34;;;;;;;34.78;17.45;;;0.60;99.90;;;;;;5037464;28;20064;-63
2023/12/02 10:57:06;;;;;;;33.05;15.65;;;0.50;99.90;;;;;;5036763;28;20052;-62
2023/12/02 10:59:49;;;;;;;35.75;19.30;;;0.60;99.90;;;;;;5055426;28;20060;-62
2023/12/02 11:02:37;;;;;;;31.25;15.40;;;0.50;99.90;;;;;;5037608;28;20148;-63
2023/12/02 11:05:23;;;;;;;31.83;16.83;;;0.50;99.90;;;;;;5037048;28;20389;-63
2023/12/02 11:07:55;;;;;;;32.20;17.98;;;0.50;99.90;;;;;;5037221;28;20063;-63
2023/12/02 11:10:31;;;;;;;32.33;16.25;;;0.40;99.90;;;;;;5037339;28;20045;-62
2023/12/02 11:13:03;;;;;;;34.15;17.02;;;0.30;99.90;;;;;;5037030;28;20137;-62
2023/12/02 11:15:36;;;;;;;35.50;17.25;;;0.40;99.90;;;;;;5037222;28;20061;-62
2023/12/02 11:18:04;;;;;;;34.60;17.10;;;0.40;99.90;;;;;;5037135;28;20052;-62
2023/12/02 11:20:53;;;;;;;35.60;16.98;;;0.40;99.90;;;;;;5053368;28;20388;-63
2023/12/02 11:24:07;;;;;;;35.22;17.20;;;0.50;99.90;;;;;;5036808;28;20060;-63
2023/12/02 11:27:07;;;;;;;34.95;16.83;;;0.50;99.90;;;;;;5050376;28;20053;-63
2023/12/02 11:29:53;;;;;;;36.75;17.85;;;0.50;99.90;;;;;;5054882;28;20057;-63
2023/12/02 11:32:32;;;;;;;33.08;16.55;;;0.70;99.90;;;;;;5054120;28;20444;-63
2023/12/02 11:35:07;;;;;;;35.15;18.40;;;0.80;99.90;;;;;;5053797;28;20064;-64
2023/12/02 11:37:54;;;;;;;40.97;19.05;;;0.90;99.90;;;;;;5035631;28;20061;-64
2023/12/02 11:40:22;;;;;;;55.08;23.27;;;0.90;99.90;;;;;;5036277;28;20052;-63
2023/12/02 11:43:09;;;;;;;62.47;23.00;;;1.00;99.90;;;;;;5036484;28;20143;-64
2023/12/02 11:45:42;;;;;;;41.95;17.48;;;1.10;99.90;;;;;;5036326;28;20044;-64
2023/12/02 11:48:22;;;;;;;52.63;22.20;;;1.20;99.90;;;;;;5035725;28;20053;-64
2023/12/02 11:51:25;;;;;;;48.60;20.80;;;1.10;99.90;;;;;;5052645;28;20045;-64
2023/12/02 11:54:16;;;;;;;61.35;22.92;;;1.20;99.90;;;;;;5022475;28;20053;-64
2023/12/02 11:56:54;;;;;;;53.00;20.70;;;1.20;99.90;;;;;;5052755;28;20051;-64
2023/12/02 11:59:27;;;;;;;59.90;21.88;;;1.20;99.90;;;;;;5034882;28;20052;-64
2023/12/02 12:02:37;;;;;;;67.38;23.52;;;1.30;99.90;;;;;;5038726;28;20508;-63
2023/12/02 12:05:10;;;;;;;59.42;23.90;;;1.30;99.90;;;;;;5033814;28;20045;-63
2023/12/02 12:07:57;;;;;;;44.25;18.35;;;1.30;99.90;;;;;;5051767;28;20358;-63
2023/12/02 12:10:34;;;;;;;69.60;25.45;;;1.40;99.90;;;;;;5035072;28;20070;-63
2023/12/02 12:13:02;;;;;;;65.82;26.38;;;1.40;99.90;;;;;;5050419;28;20055;-64
2023/12/02 12:15:31;;;;;;;52.55;21.65;;;1.40;99.90;;;;;;5033961;28;20049;-64
2023/12/02 12:17:58;;;;;;;51.33;21.33;;;1.40;99.90;;;;;;5033667;28;20049;-64
2023/12/02 12:20:29;;;;;;;47.88;20.35;;;1.50;99.90;;;;;;5034488;28;20044;-64
2023/12/02 12:22:55;;;;;;;45.50;22.42;;;1.50;99.90;;;;;;5034082;28;20052;-63
2023/12/02 12:25:28;;;;;;;42.10;21.50;;;1.50;99.90;;;;;;5034042;28;20528;-64
2023/12/02 12:28:00;;;;;;;51.22;26.00;;;1.50;99.90;;;;;;5050556;28;20056;-64
2023/12/02 12:30:26;;;;;;;44.85;23.05;;;1.50;99.90;;;;;;5033639;28;20045;-64
2023/12/02 12:32:52;;;;;;;41.35;20.00;;;1.50;99.90;;;;;;5066564;28;20049;-64
2023/12/02 12:35:19;;;;;;;40.33;19.48;;;1.50;99.90;;;;;;5033319;28;20064;-63
2023/12/02 12:37:45;;;;;;;35.47;18.08;;;1.60;99.90;;;;;;5033663;28;20060;-64
2023/12/02 12:40:12;;;;;;;34.92;18.00;;;1.60;99.90;;;;;;5033611;28;20064;-63
2023/12/02 12:42:49;;;;;;;33.83;18.08;;;1.60;99.90;;;;;;5033919;28;20068;-64
2023/12/02 12:45:16;;;;;;;34.92;17.35;;;1.70;99.90;;;;;;5033778;28;20051;-63
2023/12/02 12:47:43;;;;;;;33.72;18.38;;;1.60;99.90;;;;;;5050115;28;20059;-64
2023/12/02 12:50:14;;;;;;;37.58;18.10;;;1.60;99.90;;;;;;5033218;28;20064;-63
2023/12/02 12:52:50;;;;;;;38.47;17.90;;;1.70;99.90;;;;;;5033816;28;20053;-64
2023/12/02 12:55:22;;;;;;;31.52;17.33;;;1.70;99.90;;;;;;5033404;28;20048;-64